sensor_id;sensor_type;location;lat;lon;timestamp;P1;durP1;ratioP1;P2;durP2;ratioP2
23617;SDS011;18207;32.078;34.818;2024-03-02T00:00:07;0.93;;;0.93;;
23617;SDS011;18207;32.078;34.818;2024-03-02T00:02:42;1.60;;;1.00;;
23617;SDS011;18207;32.078;34.818;2024-03-02T00:05:16;0.95;;;0.90;;
23617;SDS011;18207;32.078;34.818;2024-03-02T00:07:54;1.15;;;0.98;;
23617;SDS011;18207;32.078;34.818;2024-03-02T00:10:27;1.30;;;1.20;;
23617;SDS011;18207;32.078;34.818;2024-03-02T00:13:08;1.38;;;1.27;;
23617;SDS011;18207;32.078;34.818;2024-03-02T00:15:41;1.38;;;1.17;;
23617;SDS011;18207;32.078;34.818;2024-03-02T00:18:19;1.35;;;1.17;;
23617;SDS011;18207;32.078;34.818;2024-03-02T00:20:54;0.93;;;0.93;;
23617;SDS011;18207;32.078;34.818;2024-03-02T00:23:27;0.95;;;0.90;;
23617;SDS011;18207;32.078;34.818;2024-03-02T00:25:59;1.08;;;1.08;;
23617;SDS011;18207;32.078;34.818;2024-03-02T00:28:30;1.30;;;1.20;;
23617;SDS011;18207;32.078;34.818;2024-03-02T00:31:03;1.58;;;1.10;;
23617;SDS011;18207;32.078;34.818;2024-03-02T00:33:35;1.10;;;1.10;;
23617;SDS011;18207;32.078;34.818;2024-03-02T00:36:09;1.00;;;1.00;;
23617;SDS011;18207;32.078;34.818;2024-03-02T00:38:52;1.27;;;1.20;;
23617;SDS011;18207;32.078;34.818;2024-03-02T00:41:24;1.38;;;0.90;;
23617;SDS011;18207;32.078;34.818;2024-03-02T00:43:59;1.38;;;1.27;;
23617;SDS011;18207;32.078;34.818;2024-03-02T00:46:32;1.40;;;1.30;;
23617;SDS011;18207;32.078;34.818;2024-03-02T00:49:04;1.10;;;1.00;;
23617;SDS011;18207;32.078;34.818;2024-03-02T00:51:41;1.40;;;1.30;;
23617;SDS011;18207;32.078;34.818;2024-03-02T00:54:18;1.15;;;1.08;;
23617;SDS011;18207;32.078;34.818;2024-03-02T00:56:51;1.13;;;1.13;;
23617;SDS011;18207;32.078;34.818;2024-03-02T00:59:23;1.20;;;1.10;;
23617;SDS011;18207;32.078;34.818;2024-03-02T01:01:56;2.28;;;1.27;;
23617;SDS011;18207;32.078;34.818;2024-03-02T01:04:26;1.20;;;1.20;;
23617;SDS011;18207;32.078;34.818;2024-03-02T01:06:56;1.20;;;1.10;;
23617;SDS011;18207;32.078;34.818;2024-03-02T01:09:30;1.17;;;1.08;;
23617;SDS011;18207;32.078;34.818;2024-03-02T01:12:00;1.27;;;1.17;;
23617;SDS011;18207;32.078;34.818;2024-03-02T01:14:30;1.08;;;1.08;;
23617;SDS011;18207;32.078;34.818;2024-03-02T01:17:00;0.95;;;0.95;;
23617;SDS011;18207;32.078;34.818;2024-03-02T01:19:31;1.33;;;1.23;;
23617;SDS011;18207;32.078;34.818;2024-03-02T01:22:01;1.13;;;0.93;;
23617;SDS011;18207;32.078;34.818;2024-03-02T01:24:33;1.52;;;1.40;;
23617;SDS011;18207;32.078;34.818;2024-03-02T01:27:02;1.35;;;1.25;;
23617;SDS011;18207;32.078;34.818;2024-03-02T01:29:32;1.83;;;1.17;;
23617;SDS011;18207;32.078;34.818;2024-03-02T01:32:03;1.30;;;1.15;;
23617;SDS011;18207;32.078;34.818;2024-03-02T01:34:36;1.33;;;1.23;;
23617;SDS011;18207;32.078;34.818;2024-03-02T01:37:06;1.02;;;1.02;;
23617;SDS011;18207;32.078;34.818;2024-03-02T01:39:42;1.10;;;1.10;;
23617;SDS011;18207;32.078;34.818;2024-03-02T01:42:12;1.80;;;1.38;;
23617;SDS011;18207;32.078;34.818;2024-03-02T01:44:42;1.33;;;1.23;;
23617;SDS011;18207;32.078;34.818;2024-03-02T01:47:12;1.60;;;1.30;;
23617;SDS011;18207;32.078;34.818;2024-03-02T01:49:42;1.30;;;1.20;;
23617;SDS011;18207;32.078;34.818;2024-03-02T01:52:12;1.38;;;1.27;;
23617;SDS011;18207;32.078;34.818;2024-03-02T01:54:43;1.35;;;1.25;;
23617;SDS011;18207;32.078;34.818;2024-03-02T01:57:13;1.45;;;1.35;;
23617;SDS011;18207;32.078;34.818;2024-03-02T01:59:43;1.60;;;1.50;;
23617;SDS011;18207;32.078;34.818;2024-03-02T02:02:14;1.80;;;1.70;;
23617;SDS011;18207;32.078;34.818;2024-03-02T02:04:44;1.60;;;1.42;;
23617;SDS011;18207;32.078;34.818;2024-03-02T02:07:14;1.95;;;1.55;;
23617;SDS011;18207;32.078;34.818;2024-03-02T02:09:45;2.40;;;1.77;;
23617;SDS011;18207;32.078;34.818;2024-03-02T02:12:15;1.90;;;1.65;;
23617;SDS011;18207;32.078;34.818;2024-03-02T02:14:48;2.22;;;1.95;;
23617;SDS011;18207;32.078;34.818;2024-03-02T02:17:18;2.25;;;1.85;;
23617;SDS011;18207;32.078;34.818;2024-03-02T02:19:48;2.20;;;2.00;;
23617;SDS011;18207;32.078;34.818;2024-03-02T02:22:20;2.47;;;2.00;;
23617;SDS011;18207;32.078;34.818;2024-03-02T02:24:49;2.35;;;2.15;;
23617;SDS011;18207;32.078;34.818;2024-03-02T02:30:13;2.47;;;2.10;;
23617;SDS011;18207;32.078;34.818;2024-03-02T02:32:47;2.83;;;2.33;;
23617;SDS011;18207;32.078;34.818;2024-03-02T02:35:17;2.30;;;2.10;;
23617;SDS011;18207;32.078;34.818;2024-03-02T02:37:48;2.40;;;2.20;;
23617;SDS011;18207;32.078;34.818;2024-03-02T02:40:20;2.60;;;2.15;;
23617;SDS011;18207;32.078;34.818;2024-03-02T02:42:50;2.33;;;2.10;;
23617;SDS011;18207;32.078;34.818;2024-03-02T02:45:20;2.40;;;2.03;;
23617;SDS011;18207;32.078;34.818;2024-03-02T02:47:50;2.35;;;2.15;;
23617;SDS011;18207;32.078;34.818;2024-03-02T02:50:35;2.38;;;2.05;;
23617;SDS011;18207;32.078;34.818;2024-03-02T02:53:06;2.17;;;1.98;;
23617;SDS011;18207;32.078;34.818;2024-03-02T02:58:21;2.30;;;1.80;;
23617;SDS011;18207;32.078;34.818;2024-03-02T03:00:50;2.13;;;1.92;;
23617;SDS011;18207;32.078;34.818;2024-03-02T03:03:23;1.90;;;1.80;;
23617;SDS011;18207;32.078;34.818;2024-03-02T03:05:53;1.65;;;1.55;;
23617;SDS011;18207;32.078;34.818;2024-03-02T03:08:24;1.90;;;1.80;;
23617;SDS011;18207;32.078;34.818;2024-03-02T03:10:54;2.13;;;1.65;;
23617;SDS011;18207;32.078;34.818;2024-03-02T03:13:24;1.58;;;1.48;;
23617;SDS011;18207;32.078;34.818;2024-03-02T03:15:55;1.67;;;1.58;;
23617;SDS011;18207;32.078;34.818;2024-03-02T03:18:25;2.00;;;1.80;;
23617;SDS011;18207;32.078;34.818;2024-03-02T03:20:55;2.05;;;1.63;;
23617;SDS011;18207;32.078;34.818;2024-03-02T03:23:27;1.65;;;1.55;;
23617;SDS011;18207;32.078;34.818;2024-03-02T03:26:06;3.58;;;2.15;;
23617;SDS011;18207;32.078;34.818;2024-03-02T03:28:35;1.73;;;1.63;;
23617;SDS011;18207;32.078;34.818;2024-03-02T03:31:05;2.00;;;1.80;;
23617;SDS011;18207;32.078;34.818;2024-03-02T03:33:35;1.50;;;1.40;;
23617;SDS011;18207;32.078;34.818;2024-03-02T03:36:05;1.48;;;1.38;;
23617;SDS011;18207;32.078;34.818;2024-03-02T03:38:36;1.58;;;1.42;;
23617;SDS011;18207;32.078;34.818;2024-03-02T03:41:06;1.48;;;1.20;;
23617;SDS011;18207;32.078;34.818;2024-03-02T03:43:35;1.60;;;1.50;;
23617;SDS011;18207;32.078;34.818;2024-03-02T03:46:05;1.70;;;1.48;;
23617;SDS011;18207;32.078;34.818;2024-03-02T03:48:35;1.40;;;1.30;;
23617;SDS011;18207;32.078;34.818;2024-03-02T03:51:04;1.35;;;1.25;;
23617;SDS011;18207;32.078;34.818;2024-03-02T03:53:36;1.60;;;1.17;;
23617;SDS011;18207;32.078;34.818;2024-03-02T03:56:06;1.40;;;1.30;;
23617;SDS011;18207;32.078;34.818;2024-03-02T03:58:36;1.52;;;1.42;;
23617;SDS011;18207;32.078;34.818;2024-03-02T04:01:06;1.40;;;1.30;;
23617;SDS011;18207;32.078;34.818;2024-03-02T04:03:44;1.95;;;1.40;;
23617;SDS011;18207;32.078;34.818;2024-03-02T04:06:14;1.27;;;1.17;;
23617;SDS011;18207;32.078;34.818;2024-03-02T04:08:48;1.15;;;1.10;;
23617;SDS011;18207;32.078;34.818;2024-03-02T04:11:18;1.40;;;1.30;;
23617;SDS011;18207;32.078;34.818;2024-03-02T04:13:48;1.95;;;1.42;;
23617;SDS011;18207;32.078;34.818;2024-03-02T04:16:20;1.40;;;1.30;;
23617;SDS011;18207;32.078;34.818;2024-03-02T04:18:49;1.80;;;1.70;;
23617;SDS011;18207;32.078;34.818;2024-03-02T04:21:19;1.60;;;1.48;;
23617;SDS011;18207;32.078;34.818;2024-03-02T04:23:50;1.80;;;1.70;;
23617;SDS011;18207;32.078;34.818;2024-03-02T04:26:24;2.97;;;1.85;;
23617;SDS011;18207;32.078;34.818;2024-03-02T04:28:54;2.70;;;1.80;;
23617;SDS011;18207;32.078;34.818;2024-03-02T04:31:23;1.95;;;1.75;;
23617;SDS011;18207;32.078;34.818;2024-03-02T04:33:53;2.38;;;1.88;;
23617;SDS011;18207;32.078;34.818;2024-03-02T04:36:23;1.90;;;1.80;;
23617;SDS011;18207;32.078;34.818;2024-03-02T04:38:54;2.28;;;2.00;;
23617;SDS011;18207;32.078;34.818;2024-03-02T04:41:24;2.17;;;1.98;;
23617;SDS011;18207;32.078;34.818;2024-03-02T04:43:53;1.90;;;1.80;;
23617;SDS011;18207;32.078;34.818;2024-03-02T04:46:23;2.38;;;1.83;;
23617;SDS011;18207;32.078;34.818;2024-03-02T04:48:53;3.17;;;2.00;;
23617;SDS011;18207;32.078;34.818;2024-03-02T04:51:24;2.40;;;2.20;;
23617;SDS011;18207;32.078;34.818;2024-03-02T04:53:55;2.28;;;2.08;;
23617;SDS011;18207;32.078;34.818;2024-03-02T04:56:25;2.70;;;2.40;;
23617;SDS011;18207;32.078;34.818;2024-03-02T04:59:17;2.78;;;2.50;;
23617;SDS011;18207;32.078;34.818;2024-03-02T05:01:47;2.35;;;2.15;;
23617;SDS011;18207;32.078;34.818;2024-03-02T05:04:17;4.72;;;2.17;;
23617;SDS011;18207;32.078;34.818;2024-03-02T05:06:47;2.40;;;2.20;;
23617;SDS011;18207;32.078;34.818;2024-03-02T05:09:26;2.47;;;2.28;;
23617;SDS011;18207;32.078;34.818;2024-03-02T05:11:56;2.38;;;2.17;;
23617;SDS011;18207;32.078;34.818;2024-03-02T05:14:56;2.33;;;2.15;;
23617;SDS011;18207;32.078;34.818;2024-03-02T05:17:26;2.38;;;2.17;;
23617;SDS011;18207;32.078;34.818;2024-03-02T05:19:56;3.53;;;2.40;;
23617;SDS011;18207;32.078;34.818;2024-03-02T05:22:26;2.17;;;2.05;;
23617;SDS011;18207;32.078;34.818;2024-03-02T05:24:57;2.40;;;2.20;;
23617;SDS011;18207;32.078;34.818;2024-03-02T05:27:28;2.20;;;2.00;;
23617;SDS011;18207;32.078;34.818;2024-03-02T05:29:58;2.10;;;1.90;;
23617;SDS011;18207;32.078;34.818;2024-03-02T05:32:28;2.38;;;1.80;;
23617;SDS011;18207;32.078;34.818;2024-03-02T05:34:58;3.55;;;1.98;;
23617;SDS011;18207;32.078;34.818;2024-03-02T05:37:28;1.98;;;1.77;;
23617;SDS011;18207;32.078;34.818;2024-03-02T05:39:59;1.92;;;1.70;;
23617;SDS011;18207;32.078;34.818;2024-03-02T05:42:29;1.98;;;1.80;;
23617;SDS011;18207;32.078;34.818;2024-03-02T05:44:59;2.10;;;1.90;;
23617;SDS011;18207;32.078;34.818;2024-03-02T05:47:29;2.25;;;2.05;;
23617;SDS011;18207;32.078;34.818;2024-03-02T05:49:59;2.53;;;2.28;;
23617;SDS011;18207;32.078;34.818;2024-03-02T05:52:42;3.05;;;2.15;;
23617;SDS011;18207;32.078;34.818;2024-03-02T05:55:14;2.70;;;2.05;;
23617;SDS011;18207;32.078;34.818;2024-03-02T05:57:43;2.10;;;1.90;;
23617;SDS011;18207;32.078;34.818;2024-03-02T06:00:30;1.83;;;1.73;;
23617;SDS011;18207;32.078;34.818;2024-03-02T06:03:00;2.22;;;1.73;;
23617;SDS011;18207;32.078;34.818;2024-03-02T06:05:30;2.72;;;1.92;;
23617;SDS011;18207;32.078;34.818;2024-03-02T06:08:00;1.88;;;1.77;;
23617;SDS011;18207;32.078;34.818;2024-03-02T06:10:31;2.40;;;2.00;;
23617;SDS011;18207;32.078;34.818;2024-03-02T06:13:01;2.28;;;1.90;;
23617;SDS011;18207;32.078;34.818;2024-03-02T06:15:31;2.65;;;2.08;;
23617;SDS011;18207;32.078;34.818;2024-03-02T06:18:03;2.42;;;2.10;;
23617;SDS011;18207;32.078;34.818;2024-03-02T06:20:35;2.30;;;2.05;;
23617;SDS011;18207;32.078;34.818;2024-03-02T06:23:04;2.13;;;1.92;;
23617;SDS011;18207;32.078;34.818;2024-03-02T06:25:36;2.88;;;2.28;;
23617;SDS011;18207;32.078;34.818;2024-03-02T06:28:06;3.10;;;2.38;;
23617;SDS011;18207;32.078;34.818;2024-03-02T06:30:36;2.63;;;2.33;;
23617;SDS011;18207;32.078;34.818;2024-03-02T06:33:08;2.80;;;2.47;;
23617;SDS011;18207;32.078;34.818;2024-03-02T06:35:40;2.60;;;2.40;;
23617;SDS011;18207;32.078;34.818;2024-03-02T06:38:12;2.55;;;2.35;;
23617;SDS011;18207;32.078;34.818;2024-03-02T06:40:54;2.80;;;2.40;;
23617;SDS011;18207;32.078;34.818;2024-03-02T06:43:23;4.18;;;2.60;;
23617;SDS011;18207;32.078;34.818;2024-03-02T06:45:54;2.70;;;2.50;;
23617;SDS011;18207;32.078;34.818;2024-03-02T06:48:24;2.50;;;2.28;;
23617;SDS011;18207;32.078;34.818;2024-03-02T06:50:55;3.15;;;2.33;;
23617;SDS011;18207;32.078;34.818;2024-03-02T06:53:25;3.28;;;2.42;;
23617;SDS011;18207;32.078;34.818;2024-03-02T06:55:59;4.07;;;2.38;;
23617;SDS011;18207;32.078;34.818;2024-03-02T06:58:28;3.35;;;2.78;;
23617;SDS011;18207;32.078;34.818;2024-03-02T07:00:59;2.83;;;2.30;;
23617;SDS011;18207;32.078;34.818;2024-03-02T07:03:29;2.58;;;2.35;;
23617;SDS011;18207;32.078;34.818;2024-03-02T07:06:08;3.83;;;2.45;;
23617;SDS011;18207;32.078;34.818;2024-03-02T07:08:38;2.88;;;2.47;;
23617;SDS011;18207;32.078;34.818;2024-03-02T07:11:13;3.42;;;2.40;;
23617;SDS011;18207;32.078;34.818;2024-03-02T07:13:43;2.67;;;2.30;;
23617;SDS011;18207;32.078;34.818;2024-03-02T07:16:13;2.65;;;2.10;;
23617;SDS011;18207;32.078;34.818;2024-03-02T07:18:56;2.47;;;1.95;;
23617;SDS011;18207;32.078;34.818;2024-03-02T07:21:28;2.10;;;1.90;;
23617;SDS011;18207;32.078;34.818;2024-03-02T07:24:00;1.95;;;1.60;;
23617;SDS011;18207;32.078;34.818;2024-03-02T07:26:32;1.95;;;1.70;;
23617;SDS011;18207;32.078;34.818;2024-03-02T07:29:05;1.60;;;1.50;;
23617;SDS011;18207;32.078;34.818;2024-03-02T07:31:35;2.03;;;1.40;;
23617;SDS011;18207;32.078;34.818;2024-03-02T07:34:05;1.98;;;1.38;;
23617;SDS011;18207;32.078;34.818;2024-03-02T07:36:38;1.85;;;1.42;;
23617;SDS011;18207;32.078;34.818;2024-03-02T07:39:08;1.30;;;1.20;;
23617;SDS011;18207;32.078;34.818;2024-03-02T07:41:40;1.23;;;1.13;;
23617;SDS011;18207;32.078;34.818;2024-03-02T07:44:10;1.60;;;1.33;;
23617;SDS011;18207;32.078;34.818;2024-03-02T07:46:41;1.15;;;1.10;;
23617;SDS011;18207;32.078;34.818;2024-03-02T07:49:13;1.70;;;1.60;;
23617;SDS011;18207;32.078;34.818;2024-03-02T07:51:43;1.95;;;1.77;;
23617;SDS011;18207;32.078;34.818;2024-03-02T07:54:13;2.22;;;1.70;;
23617;SDS011;18207;32.078;34.818;2024-03-02T07:56:46;2.53;;;2.10;;
23617;SDS011;18207;32.078;34.818;2024-03-02T07:59:16;2.63;;;1.90;;
23617;SDS011;18207;32.078;34.818;2024-03-02T08:01:46;2.33;;;2.13;;
23617;SDS011;18207;32.078;34.818;2024-03-02T08:04:17;2.63;;;2.00;;
23617;SDS011;18207;32.078;34.818;2024-03-02T08:06:47;1.90;;;1.80;;
23617;SDS011;18207;32.078;34.818;2024-03-02T08:09:17;2.05;;;1.80;;
23617;SDS011;18207;32.078;34.818;2024-03-02T08:11:49;1.95;;;1.85;;
23617;SDS011;18207;32.078;34.818;2024-03-02T08:14:27;3.35;;;2.00;;
23617;SDS011;18207;32.078;34.818;2024-03-02T08:16:57;4.10;;;2.03;;
23617;SDS011;18207;32.078;34.818;2024-03-02T08:19:28;2.10;;;2.00;;
23617;SDS011;18207;32.078;34.818;2024-03-02T08:22:01;2.67;;;2.40;;
23617;SDS011;18207;32.078;34.818;2024-03-02T08:24:35;2.60;;;2.40;;
23617;SDS011;18207;32.078;34.818;2024-03-02T08:27:06;2.58;;;2.10;;
23617;SDS011;18207;32.078;34.818;2024-03-02T08:29:36;2.65;;;2.20;;
23617;SDS011;18207;32.078;34.818;2024-03-02T08:32:06;2.70;;;2.35;;
23617;SDS011;18207;32.078;34.818;2024-03-02T08:34:36;3.08;;;2.17;;
23617;SDS011;18207;32.078;34.818;2024-03-02T08:37:05;2.40;;;2.20;;
23617;SDS011;18207;32.078;34.818;2024-03-02T08:39:35;4.53;;;2.25;;
23617;SDS011;18207;32.078;34.818;2024-03-02T08:42:07;3.92;;;2.38;;
23617;SDS011;18207;32.078;34.818;2024-03-02T08:44:38;2.28;;;2.08;;
23617;SDS011;18207;32.078;34.818;2024-03-02T08:47:07;2.55;;;2.35;;
23617;SDS011;18207;32.078;34.818;2024-03-02T08:49:38;3.00;;;2.00;;
23617;SDS011;18207;32.078;34.818;2024-03-02T08:52:08;4.32;;;2.70;;
23617;SDS011;18207;32.078;34.818;2024-03-02T08:54:38;3.88;;;2.47;;
23617;SDS011;18207;32.078;34.818;2024-03-02T08:57:10;3.63;;;2.75;;
23617;SDS011;18207;32.078;34.818;2024-03-02T08:59:39;5.63;;;2.60;;
23617;SDS011;18207;32.078;34.818;2024-03-02T09:02:09;5.13;;;2.47;;
23617;SDS011;18207;32.078;34.818;2024-03-02T09:04:39;3.47;;;2.75;;
23617;SDS011;18207;32.078;34.818;2024-03-02T09:07:19;3.17;;;2.75;;
23617;SDS011;18207;32.078;34.818;2024-03-02T09:09:49;2.60;;;2.40;;
23617;SDS011;18207;32.078;34.818;2024-03-02T09:12:23;3.47;;;2.67;;
23617;SDS011;18207;32.078;34.818;2024-03-02T09:14:53;4.20;;;2.55;;
23617;SDS011;18207;32.078;34.818;2024-03-02T09:17:23;3.70;;;2.65;;
23617;SDS011;18207;32.078;34.818;2024-03-02T09:19:53;2.88;;;2.53;;
23617;SDS011;18207;32.078;34.818;2024-03-02T09:22:27;3.65;;;2.50;;
23617;SDS011;18207;32.078;34.818;2024-03-02T09:25:13;4.43;;;2.60;;
23617;SDS011;18207;32.078;34.818;2024-03-02T09:27:53;3.28;;;2.78;;
23617;SDS011;18207;32.078;34.818;2024-03-02T09:30:23;2.92;;;2.60;;
23617;SDS011;18207;32.078;34.818;2024-03-02T09:33:07;4.30;;;2.85;;
23617;SDS011;18207;32.078;34.818;2024-03-02T09:35:39;2.90;;;2.58;;
23617;SDS011;18207;32.078;34.818;2024-03-02T09:38:09;2.92;;;2.55;;
23617;SDS011;18207;32.078;34.818;2024-03-02T09:40:41;3.42;;;2.83;;
23617;SDS011;18207;32.078;34.818;2024-03-02T09:43:13;2.92;;;2.63;;
23617;SDS011;18207;32.078;34.818;2024-03-02T09:45:46;2.95;;;2.72;;
23617;SDS011;18207;32.078;34.818;2024-03-02T09:48:32;3.85;;;2.45;;
23617;SDS011;18207;32.078;34.818;2024-03-02T09:51:02;3.05;;;2.60;;
23617;SDS011;18207;32.078;34.818;2024-03-02T09:53:37;3.78;;;2.60;;
23617;SDS011;18207;32.078;34.818;2024-03-02T09:56:08;4.35;;;2.72;;
23617;SDS011;18207;32.078;34.818;2024-03-02T09:58:46;3.30;;;2.75;;
23617;SDS011;18207;32.078;34.818;2024-03-02T10:01:18;2.83;;;2.53;;
23617;SDS011;18207;32.078;34.818;2024-03-02T10:03:49;2.80;;;2.50;;
23617;SDS011;18207;32.078;34.818;2024-03-02T10:06:21;3.13;;;2.50;;
23617;SDS011;18207;32.078;34.818;2024-03-02T10:09:01;2.83;;;2.40;;
23617;SDS011;18207;32.078;34.818;2024-03-02T10:11:31;3.13;;;2.40;;
23617;SDS011;18207;32.078;34.818;2024-03-02T10:14:09;3.55;;;2.53;;
23617;SDS011;18207;32.078;34.818;2024-03-02T10:16:41;3.83;;;2.67;;
23617;SDS011;18207;32.078;34.818;2024-03-02T10:19:17;2.90;;;2.60;;
23617;SDS011;18207;32.078;34.818;2024-03-02T10:21:48;3.60;;;2.90;;
23617;SDS011;18207;32.078;34.818;2024-03-02T10:24:20;3.00;;;2.70;;
23617;SDS011;18207;32.078;34.818;2024-03-02T10:26:51;2.70;;;2.50;;
23617;SDS011;18207;32.078;34.818;2024-03-02T10:29:25;2.95;;;2.60;;
23617;SDS011;18207;32.078;34.818;2024-03-02T10:32:01;4.55;;;2.33;;
23617;SDS011;18207;32.078;34.818;2024-03-02T10:34:56;3.25;;;2.10;;
23617;SDS011;18207;32.078;34.818;2024-03-02T10:37:31;2.75;;;2.40;;
23617;SDS011;18207;32.078;34.818;2024-03-02T10:40:04;3.97;;;2.42;;
23617;SDS011;18207;32.078;34.818;2024-03-02T10:42:36;3.17;;;2.65;;
23617;SDS011;18207;32.078;34.818;2024-03-02T10:45:10;3.22;;;2.42;;
23617;SDS011;18207;32.078;34.818;2024-03-02T10:47:44;2.97;;;2.58;;
23617;SDS011;18207;32.078;34.818;2024-03-02T10:50:18;3.95;;;2.40;;
23617;SDS011;18207;32.078;34.818;2024-03-02T10:52:48;3.72;;;2.75;;
23617;SDS011;18207;32.078;34.818;2024-03-02T10:55:17;3.10;;;2.65;;
23617;SDS011;18207;32.078;34.818;2024-03-02T10:57:50;5.38;;;2.80;;
23617;SDS011;18207;32.078;34.818;2024-03-02T11:00:24;3.60;;;2.70;;
23617;SDS011;18207;32.078;34.818;2024-03-02T11:02:58;3.42;;;2.55;;
23617;SDS011;18207;32.078;34.818;2024-03-02T11:05:36;4.13;;;2.50;;
23617;SDS011;18207;32.078;34.818;2024-03-02T11:08:11;4.22;;;2.70;;
23617;SDS011;18207;32.078;34.818;2024-03-02T11:10:48;3.50;;;2.60;;
23617;SDS011;18207;32.078;34.818;2024-03-02T11:13:24;3.45;;;2.50;;
23617;SDS011;18207;32.078;34.818;2024-03-02T11:16:09;3.15;;;2.33;;
23617;SDS011;18207;32.078;34.818;2024-03-02T11:19:11;2.55;;;2.28;;
23617;SDS011;18207;32.078;34.818;2024-03-02T11:21:45;2.47;;;2.28;;
23617;SDS011;18207;32.078;34.818;2024-03-02T11:24:28;2.80;;;2.38;;
23617;SDS011;18207;32.078;34.818;2024-03-02T11:27:05;2.33;;;2.13;;
23617;SDS011;18207;32.078;34.818;2024-03-02T11:29:43;2.58;;;2.38;;
23617;SDS011;18207;32.078;34.818;2024-03-02T11:35:01;3.65;;;2.58;;
23617;SDS011;18207;32.078;34.818;2024-03-02T11:37:35;2.95;;;2.38;;
23617;SDS011;18207;32.078;34.818;2024-03-02T11:40:08;2.40;;;2.10;;
23617;SDS011;18207;32.078;34.818;2024-03-02T11:42:39;3.75;;;2.38;;
23617;SDS011;18207;32.078;34.818;2024-03-02T11:45:09;2.63;;;2.17;;
23617;SDS011;18207;32.078;34.818;2024-03-02T11:47:41;3.70;;;2.30;;
23617;SDS011;18207;32.078;34.818;2024-03-02T11:50:28;2.47;;;2.28;;
23617;SDS011;18207;32.078;34.818;2024-03-02T11:53:06;4.10;;;2.53;;
23617;SDS011;18207;32.078;34.818;2024-03-02T11:55:40;3.63;;;2.47;;
23617;SDS011;18207;32.078;34.818;2024-03-02T11:58:15;3.70;;;2.38;;
23617;SDS011;18207;32.078;34.818;2024-03-02T12:00:50;3.03;;;2.38;;
23617;SDS011;18207;32.078;34.818;2024-03-02T12:03:23;3.10;;;2.30;;
23617;SDS011;18207;32.078;34.818;2024-03-02T12:05:54;2.50;;;2.13;;
23617;SDS011;18207;32.078;34.818;2024-03-02T12:08:24;3.60;;;2.38;;
23617;SDS011;18207;32.078;34.818;2024-03-02T12:10:55;2.83;;;2.20;;
23617;SDS011;18207;32.078;34.818;2024-03-02T12:13:29;2.92;;;2.17;;
23617;SDS011;18207;32.078;34.818;2024-03-02T12:15:59;3.25;;;2.20;;
23617;SDS011;18207;32.078;34.818;2024-03-02T12:18:31;2.92;;;2.13;;
23617;SDS011;18207;32.078;34.818;2024-03-02T12:21:01;3.63;;;2.13;;
23617;SDS011;18207;32.078;34.818;2024-03-02T12:23:34;3.40;;;2.22;;
23617;SDS011;18207;32.078;34.818;2024-03-02T12:26:05;2.42;;;2.08;;
23617;SDS011;18207;32.078;34.818;2024-03-02T12:28:36;2.60;;;2.13;;
23617;SDS011;18207;32.078;34.818;2024-03-02T12:31:09;2.42;;;2.00;;
23617;SDS011;18207;32.078;34.818;2024-03-02T12:33:41;2.00;;;1.90;;
23617;SDS011;18207;32.078;34.818;2024-03-02T12:36:12;2.95;;;2.13;;
23617;SDS011;18207;32.078;34.818;2024-03-02T12:38:43;2.75;;;1.98;;
23617;SDS011;18207;32.078;34.818;2024-03-02T12:41:14;3.35;;;1.90;;
23617;SDS011;18207;32.078;34.818;2024-03-02T12:43:44;4.10;;;2.08;;
23617;SDS011;18207;32.078;34.818;2024-03-02T12:46:14;2.72;;;2.10;;
23617;SDS011;18207;32.078;34.818;2024-03-02T12:48:46;2.45;;;1.85;;
23617;SDS011;18207;32.078;34.818;2024-03-02T12:51:18;2.75;;;1.90;;
23617;SDS011;18207;32.078;34.818;2024-03-02T12:54:15;3.08;;;1.90;;
23617;SDS011;18207;32.078;34.818;2024-03-02T12:56:45;3.70;;;1.80;;
23617;SDS011;18207;32.078;34.818;2024-03-02T12:59:21;2.80;;;1.67;;
23617;SDS011;18207;32.078;34.818;2024-03-02T13:01:53;2.60;;;1.70;;
23617;SDS011;18207;32.078;34.818;2024-03-02T13:04:27;2.58;;;1.88;;
23617;SDS011;18207;32.078;34.818;2024-03-02T13:06:58;3.08;;;1.75;;
23617;SDS011;18207;32.078;34.818;2024-03-02T13:09:32;2.08;;;1.85;;
23617;SDS011;18207;32.078;34.818;2024-03-02T13:12:03;3.60;;;1.80;;
23617;SDS011;18207;32.078;34.818;2024-03-02T13:14:35;2.80;;;1.90;;
23617;SDS011;18207;32.078;34.818;2024-03-02T13:17:04;2.63;;;2.00;;
23617;SDS011;18207;32.078;34.818;2024-03-02T13:19:38;2.95;;;1.70;;
23617;SDS011;18207;32.078;34.818;2024-03-02T13:22:18;2.47;;;1.67;;
23617;SDS011;18207;32.078;34.818;2024-03-02T13:24:50;2.35;;;1.65;;
23617;SDS011;18207;32.078;34.818;2024-03-02T13:27:22;2.08;;;1.60;;
23617;SDS011;18207;32.078;34.818;2024-03-02T13:29:52;2.28;;;1.60;;
23617;SDS011;18207;32.078;34.818;2024-03-02T13:32:23;2.65;;;1.50;;
23617;SDS011;18207;32.078;34.818;2024-03-02T13:35:08;2.58;;;1.48;;
23617;SDS011;18207;32.078;34.818;2024-03-02T13:37:38;3.05;;;1.60;;
23617;SDS011;18207;32.078;34.818;2024-03-02T13:40:09;4.22;;;1.95;;
23617;SDS011;18207;32.078;34.818;2024-03-02T13:42:45;2.50;;;1.48;;
23617;SDS011;18207;32.078;34.818;2024-03-02T13:45:18;2.38;;;1.80;;
23617;SDS011;18207;32.078;34.818;2024-03-02T13:47:50;2.10;;;1.70;;
23617;SDS011;18207;32.078;34.818;2024-03-02T13:50:22;2.83;;;1.58;;
23617;SDS011;18207;32.078;34.818;2024-03-02T13:52:52;3.50;;;1.52;;
23617;SDS011;18207;32.078;34.818;2024-03-02T13:55:22;3.17;;;2.00;;
23617;SDS011;18207;32.078;34.818;2024-03-02T13:57:52;3.05;;;1.80;;
23617;SDS011;18207;32.078;34.818;2024-03-02T14:00:34;2.00;;;1.48;;
23617;SDS011;18207;32.078;34.818;2024-03-02T14:03:17;2.33;;;1.40;;
23617;SDS011;18207;32.078;34.818;2024-03-02T14:05:51;1.38;;;1.27;;
23617;SDS011;18207;32.078;34.818;2024-03-02T14:08:23;2.53;;;1.45;;
23617;SDS011;18207;32.078;34.818;2024-03-02T14:10:54;2.22;;;1.30;;
23617;SDS011;18207;32.078;34.818;2024-03-02T14:13:27;1.30;;;1.17;;
23617;SDS011;18207;32.078;34.818;2024-03-02T14:15:58;1.80;;;1.40;;
23617;SDS011;18207;32.078;34.818;2024-03-02T14:18:28;1.65;;;1.13;;
23617;SDS011;18207;32.078;34.818;2024-03-02T14:21:00;1.75;;;1.60;;
23617;SDS011;18207;32.078;34.818;2024-03-02T14:23:30;2.38;;;1.30;;
23617;SDS011;18207;32.078;34.818;2024-03-02T14:26:00;2.22;;;1.60;;
23617;SDS011;18207;32.078;34.818;2024-03-02T14:28:30;1.65;;;1.40;;
23617;SDS011;18207;32.078;34.818;2024-03-02T14:31:16;2.83;;;1.60;;
23617;SDS011;18207;32.078;34.818;2024-03-02T14:33:49;2.50;;;1.50;;
23617;SDS011;18207;32.078;34.818;2024-03-02T14:36:21;2.00;;;1.67;;
23617;SDS011;18207;32.078;34.818;2024-03-02T14:38:53;1.40;;;1.30;;
23617;SDS011;18207;32.078;34.818;2024-03-02T14:41:23;2.42;;;1.58;;
23617;SDS011;18207;32.078;34.818;2024-03-02T14:43:53;1.55;;;1.38;;
23617;SDS011;18207;32.078;34.818;2024-03-02T14:46:23;3.03;;;1.48;;
23617;SDS011;18207;32.078;34.818;2024-03-02T14:48:53;1.83;;;1.50;;
23617;SDS011;18207;32.078;34.818;2024-03-02T14:51:27;2.65;;;1.65;;
23617;SDS011;18207;32.078;34.818;2024-03-02T14:53:58;1.98;;;1.60;;
23617;SDS011;18207;32.078;34.818;2024-03-02T14:56:28;1.98;;;1.35;;
23617;SDS011;18207;32.078;34.818;2024-03-02T14:58:58;2.47;;;1.50;;
23617;SDS011;18207;32.078;34.818;2024-03-02T15:01:28;1.65;;;1.45;;
23617;SDS011;18207;32.078;34.818;2024-03-02T15:03:58;1.88;;;1.50;;
23617;SDS011;18207;32.078;34.818;2024-03-02T15:06:29;2.10;;;1.33;;
23617;SDS011;18207;32.078;34.818;2024-03-02T15:08:59;2.03;;;1.42;;
23617;SDS011;18207;32.078;34.818;2024-03-02T15:11:32;1.83;;;1.55;;